Portada
METAR-TAF:

METAR-TAF

Aeropuertos :

Aeropuerto Eros

Windhoek, Namibia

latitud: 22-36-44S, longitud: 017-04-50E, altitud: 1699 m

Observación

El informe se hizo hace 4 horas y 46 minutos, a las 09:00 UTC
Viento 3 kt con dirección variable
Temperatura 28°C
Humedad 15%
Presión 1028 hPa
Visibilidad 10 km o más
sin nubes por debajo de 1500 m y sin presencia de cumulonimbus.

METAR: FYWE 250900Z VRB03KT CAVOK 28/M01 Q1028

Hora: 15:46 (13:46 UTC)

Pronóstico

El informe se hizo hace 2 horas y 46 minutos, a las 11:00 UTC
Pronóstico válido del 25 a las 12 UTC al 25 a las 21 UTC
Viento 6 kt del norte-noroeste
Visibilidad 10 km o más
sin nubes por debajo de 1500 m y sin presencia de cumulonimbus.
Evolucionando progresivamente
del 25 a las 16 UTC al 25 a las 18 UTC
Viento 5 kt del oeste-suroeste

TAF: FYWE 251100Z 2512/2521 34006KT CAVOK BECMG 2516/2518 24005KT

Observaciones y pronósticos meteorológicos de más de 4000 aeropuertos (mensajes METAR y TAF).

Los puntos amarillos y rojos representan las estaciones disponibles.

Ponga el ratón en el punto deseado para ver el nombre de la estación.

Haga clic para ver las observaciones y los pronósticos meteorológicos.

Para cambiar el mapa : haga clic en los botones verdes con una cruz de color negro para hacer un zoom, en el botón verde con un guión para alejar o en las flechas verdes para mapas adyacentes.


METAR-TAF: